Time;durP1;ratioP1;P1;durP2;ratioP2;P2;SDS_P1;SDS_P2;PMS_P1;PMS_P2;Temp;Humidity;BMP_temperature;BMP_pressure;BME280_temperature;BME280_humidity;BME280_pressure;Samples;Min_cycle;Max_cycle;Signal;HPM_P1;HPM_P2
2022/04/16 00:01:17;;;;;;;;;;;14.60;91.30;;;;;;4970807;28;19937;-65
2022/04/16 00:03:43;;;;;;;;;;;14.70;91.20;;;;;;4971385;28;20458;-65
2022/04/16 00:06:09;;;;;;;;;;;14.60;91.10;;;;;;4970917;28;20429;-65
2022/04/16 00:08:34;;;;;;;;;;;14.60;91.10;;;;;;4971820;28;20009;-66
2022/04/16 00:11:00;;;;;;;;;;;14.60;91.50;;;;;;4971183;28;20013;-64
2022/04/16 00:13:26;;;;;;;;;;;14.50;91.40;;;;;;4970729;28;20002;-67
2022/04/16 00:15:54;;;;;;;;;;;14.50;91.60;;;;;;4970913;28;19961;-65
2022/04/16 00:18:20;;;;;;;;;;;14.50;92.10;;;;;;4971015;28;19918;-64
2022/04/16 00:20:49;;;;;;;;;;;14.50;91.80;;;;;;4971852;28;20398;-66
2022/04/16 00:23:14;;;;;;;;;;;14.40;91.80;;;;;;4971278;28;20268;-65
2022/04/16 00:25:41;;;;;;;;;;;14.40;91.90;;;;;;4970866;28;20414;-62
2022/04/16 00:28:08;;;;;;;;;;;14.40;92.00;;;;;;4970583;28;19914;-62
2022/04/16 00:30:37;;;;;;;;;;;14.40;91.80;;;;;;4971141;28;19929;-64
2022/04/16 00:33:06;;;;;;;;;;;14.30;91.90;;;;;;4970998;28;19914;-65
2022/04/16 00:35:32;;;;;;;;;;;14.30;92.20;;;;;;4969543;28;19960;-65
2022/04/16 00:37:57;;;;;;;;;;;14.30;92.40;;;;;;4970737;28;19914;-65
2022/04/16 00:40:23;;;;;;;;;;;14.30;92.00;;;;;;4971068;28;19918;-65
2022/04/16 00:42:49;;;;;;;;;;;14.30;92.20;;;;;;4971311;28;19921;-66
2022/04/16 00:45:15;;;;;;;;;;;14.20;92.50;;;;;;4970680;28;19930;-65
2022/04/16 00:47:41;;;;;;;;;;;14.20;92.80;;;;;;4971550;28;19921;-65
2022/04/16 00:50:11;;;;;;;;;;;14.20;92.20;;;;;;4970439;28;19922;-64
2022/04/16 00:52:37;;;;;;;;;;;14.20;92.40;;;;;;4970756;28;19954;-66
2022/04/16 00:55:04;;;;;;;;;;;14.10;92.40;;;;;;4969769;28;19918;-63
2022/04/16 00:57:30;;;;;;;;;;;14.10;92.60;;;;;;4974590;28;19918;-63
2022/04/16 00:59:56;;;;;;;;;;;14.10;93.00;;;;;;4974851;28;19917;-64
2022/04/16 01:02:21;;;;;;;;;;;14.00;92.90;;;;;;4974967;28;20326;-63
2022/04/16 01:04:47;;;;;;;;;;;14.00;93.00;;;;;;4973813;28;19954;-65
2022/04/16 01:07:12;;;;;;;;;;;14.00;93.60;;;;;;4974211;28;19957;-65
2022/04/16 01:09:38;;;;;;;;;;;14.00;93.00;;;;;;4974585;28;19959;-65
2022/04/16 01:12:04;;;;;;;;;;;14.00;93.20;;;;;;4974368;28;20029;-66
2022/04/16 01:14:29;;;;;;;;;;;13.90;93.60;;;;;;4975112;28;20357;-63
2022/04/16 01:16:57;;;;;;;;;;;13.90;93.80;;;;;;4974113;28;19918;-65
2022/04/16 01:19:23;;;;;;;;;;;13.90;93.70;;;;;;4973814;28;19918;-66
2022/04/16 01:21:50;;;;;;;;;;;13.90;93.80;;;;;;4973838;28;19945;-67
2022/04/16 01:24:15;;;;;;;;;;;13.80;94.10;;;;;;4973969;28;19965;-66
2022/04/16 01:26:43;;;;;;;;;;;13.80;93.90;;;;;;4974685;28;20326;-66
2022/04/16 01:29:12;;;;;;;;;;;13.80;94.00;;;;;;4974220;28;19914;-64
2022/04/16 01:31:38;;;;;;;;;;;13.80;94.00;;;;;;4973725;28;20467;-68
2022/04/16 01:34:04;;;;;;;;;;;13.80;94.30;;;;;;4973950;28;20411;-65
2022/04/16 01:36:31;;;;;;;;;;;13.80;94.30;;;;;;4973845;28;19973;-66
2022/04/16 01:38:57;;;;;;;;;;;13.70;94.50;;;;;;4974424;28;19914;-67
2022/04/16 01:41:27;;;;;;;;;;;13.70;94.20;;;;;;4974393;28;20021;-64
2022/04/16 01:43:54;;;;;;;;;;;13.70;94.20;;;;;;4973332;28;19926;-64
2022/04/16 01:46:19;;;;;;;;;;;13.70;94.50;;;;;;4973176;28;19914;-65
2022/04/16 01:48:45;;;;;;;;;;;13.60;94.20;;;;;;4973628;28;20338;-64
2022/04/16 01:51:10;;;;;;;;;;;13.60;94.30;;;;;;4973276;28;20014;-67
2022/04/16 01:53:36;;;;;;;;;;;13.60;94.30;;;;;;4974166;28;19910;-64
2022/04/16 01:56:01;;;;;;;;;;;13.60;94.90;;;;;;4973767;28;19914;-64
2022/04/16 01:58:27;;;;;;;;;;;13.50;94.60;;;;;;4973761;28;19914;-64
2022/04/16 02:00:52;;;;;;;;;;;13.50;95.30;;;;;;4987808;28;19918;-62
2022/04/16 02:03:20;;;;;;;;;;;13.50;95.40;;;;;;4973549;28;19956;-65
2022/04/16 02:05:46;;;;;;;;;;;13.50;96.00;;;;;;4970303;28;19957;-63
2022/04/16 02:08:12;;;;;;;;;;;13.40;95.30;;;;;;4970974;28;19950;-65
2022/04/16 02:10:37;;;;;;;;;;;13.40;95.50;;;;;;4973039;28;19918;-64
2022/04/16 02:13:03;;;;;;;;;;;13.40;95.60;;;;;;4973408;28;19925;-63
2022/04/16 02:15:29;;;;;;;;;;;13.40;96.00;;;;;;4972883;28;19918;-65
2022/04/16 02:17:56;;;;;;;;;;;13.30;96.10;;;;;;4973912;28;20291;-63
2022/04/16 02:20:23;;;;;;;;;;;13.30;96.40;;;;;;4972285;28;20386;-65
2022/04/16 02:22:48;;;;;;;;;;;13.30;96.50;;;;;;4972543;28;19914;-66
2022/04/16 02:25:16;;;;;;;;;;;13.30;96.60;;;;;;4973297;28;19968;-64
2022/04/16 02:27:42;;;;;;;;;;;13.20;96.60;;;;;;4973170;28;20474;-63
2022/04/16 02:30:09;;;;;;;;;;;13.20;96.70;;;;;;4972242;28;20009;-63
2022/04/16 02:32:42;;;;;;;;;;;13.20;96.90;;;;;;4973836;28;19979;-64
2022/04/16 02:35:08;;;;;;;;;;;13.20;96.90;;;;;;4972893;28;19921;-63
2022/04/16 02:37:34;;;;;;;;;;;13.10;97.30;;;;;;4972498;28;19918;-64
2022/04/16 02:40:00;;;;;;;;;;;13.10;97.40;;;;;;4972216;28;19914;-64
2022/04/16 02:42:26;;;;;;;;;;;13.10;97.30;;;;;;4972452;28;19914;-64
2022/04/16 02:47:35;;;;;;;;;;;13.10;97.30;;;;;;4971752;28;19964;-63
2022/04/16 02:50:00;;;;;;;;;;;13.00;97.20;;;;;;4972483;28;20367;-65
2022/04/16 02:52:26;;;;;;;;;;;13.00;97.80;;;;;;4972304;28;19973;-65
2022/04/16 02:54:54;;;;;;;;;;;12.90;97.80;;;;;;4972156;28;19918;-63
2022/04/16 02:57:20;;;;;;;;;;;12.90;98.20;;;;;;4972335;28;19918;-62
2022/04/16 02:59:46;;;;;;;;;;;12.90;98.30;;;;;;4968777;28;20009;-64
2022/04/16 03:02:15;;;;;;;;;;;12.80;98.20;;;;;;4971695;28;19910;-63
2022/04/16 03:04:40;;;;;;;;;;;12.80;98.00;;;;;;4972412;28;19914;-64
2022/04/16 03:07:06;;;;;;;;;;;12.80;98.40;;;;;;4972045;28;20291;-66
2022/04/16 03:09:32;;;;;;;;;;;12.80;98.50;;;;;;4972192;28;19914;-65
2022/04/16 03:11:58;;;;;;;;;;;12.80;98.10;;;;;;4972444;28;19926;-65
2022/04/16 03:19:52;;;;;;;;;;;12.70;98.40;;;;;;4971196;28;19920;-61
2022/04/16 03:22:17;;;;;;;;;;;12.60;98.60;;;;;;4971787;28;19914;-64
2022/04/16 03:24:43;;;;;;;;;;;12.60;98.70;;;;;;4972079;28;19925;-66
2022/04/16 03:27:08;;;;;;;;;;;12.60;98.80;;;;;;4986671;28;19917;-65
2022/04/16 03:29:34;;;;;;;;;;;12.50;98.40;;;;;;4972173;28;19914;-64
2022/04/16 03:32:00;;;;;;;;;;;12.50;98.90;;;;;;4971355;28;19969;-66
2022/04/16 03:34:25;;;;;;;;;;;12.50;99.00;;;;;;4971524;28;20439;-65
2022/04/16 03:36:51;;;;;;;;;;;12.40;99.20;;;;;;4971756;28;19972;-67
2022/04/16 03:39:16;;;;;;;;;;;12.40;98.80;;;;;;4971461;28;20029;-64
2022/04/16 03:41:42;;;;;;;;;;;12.40;99.10;;;;;;4972545;28;19981;-64
2022/04/16 03:44:08;;;;;;;;;;;12.40;99.30;;;;;;4971062;28;19922;-63
2022/04/16 03:46:33;;;;;;;;;;;12.30;98.70;;;;;;4971376;28;20000;-63
2022/04/16 03:49:02;;;;;;;;;;;12.40;99.10;;;;;;4971203;28;20406;-65
2022/04/16 03:51:27;;;;;;;;;;;12.40;99.70;;;;;;4971482;28;19922;-66
2022/04/16 03:53:53;;;;;;;;;;;12.30;99.40;;;;;;4971894;28;19968;-64
2022/04/16 04:01:47;;;;;;;;;;;12.20;99.70;;;;;;4970986;28;19969;-65
2022/04/16 04:04:13;;;;;;;;;;;12.30;99.70;;;;;;4970995;28;20319;-62
2022/04/16 04:06:38;;;;;;;;;;;12.20;99.20;;;;;;4971289;28;19921;-63
2022/04/16 04:09:04;;;;;;;;;;;12.20;99.50;;;;;;4971886;28;19918;-60
2022/04/16 04:11:29;;;;;;;;;;;12.20;99.40;;;;;;4971301;28;19922;-63
2022/04/16 04:13:55;;;;;;;;;;;12.10;99.90;;;;;;4970941;28;19918;-64
2022/04/16 04:16:22;;;;;;;;;;;12.10;99.80;;;;;;4971422;28;19914;-63
2022/04/16 04:18:48;;;;;;;;;;;12.00;99.40;;;;;;4971024;28;20011;-63
2022/04/16 04:21:13;;;;;;;;;;;12.00;99.60;;;;;;4970898;28;20009;-63
2022/04/16 04:23:39;;;;;;;;;;;12.00;99.70;;;;;;4972361;28;19910;-64
2022/04/16 04:26:04;;;;;;;;;;;12.00;99.80;;;;;;4971198;28;19918;-62
2022/04/16 04:28:30;;;;;;;;;;;12.00;99.60;;;;;;4971176;28;19914;-63
2022/04/16 04:30:55;;;;;;;;;;;12.00;99.90;;;;;;4972548;28;19922;-62
2022/04/16 04:33:21;;;;;;;;;;;11.90;99.90;;;;;;4975783;28;20371;-64
2022/04/16 04:35:47;;;;;;;;;;;11.90;99.60;;;;;;4972503;28;19911;-63
2022/04/16 04:38:13;;;;;;;;;;;11.90;99.90;;;;;;4975247;28;20010;-66
2022/04/16 04:40:39;;;;;;;;;;;11.90;99.90;;;;;;4975210;28;20009;-63
2022/04/16 04:43:04;;;;;;;;;;;11.90;99.90;;;;;;4975228;28;19984;-63
2022/04/16 04:45:30;;;;;;;;;;;11.80;99.60;;;;;;4975186;28;20335;-63
2022/04/16 04:47:55;;;;;;;;;;;11.80;99.60;;;;;;4975625;28;19917;-61
2022/04/16 04:50:21;;;;;;;;;;;11.80;99.90;;;;;;4975458;28;20379;-63
2022/04/16 04:52:46;;;;;;;;;;;11.70;99.90;;;;;;4975278;28;19914;-63
2022/04/16 04:55:13;;;;;;;;;;;11.70;99.60;;;;;;4974670;28;19913;-64
2022/04/16 04:57:39;;;;;;;;;;;11.70;99.90;;;;;;4974912;28;19921;-63
2022/04/16 05:00:05;;;;;;;;;;;11.70;99.90;;;;;;4975019;28;20302;-64
2022/04/16 05:02:38;;;;;;;;;;;11.70;99.90;;;;;;4973885;28;19914;-64
2022/04/16 05:05:03;;;;;;;;;;;11.70;99.90;;;;;;4974997;28;19922;-64
2022/04/16 05:07:29;;;;;;;;;;;11.60;99.90;;;;;;4974751;28;20387;-64
2022/04/16 05:09:54;;;;;;;;;;;11.60;99.90;;;;;;4974794;28;19961;-65
2022/04/16 05:12:20;;;;;;;;;;;11.60;99.90;;;;;;4974674;28;20018;-62
2022/04/16 05:14:45;;;;;;;;;;;11.60;99.90;;;;;;4975184;28;19910;-65
2022/04/16 05:17:10;;;;;;;;;;;11.60;99.90;;;;;;4974531;28;19957;-63
2022/04/16 05:19:36;;;;;;;;;;;11.60;99.90;;;;;;4974839;28;19914;-64
2022/04/16 05:22:01;;;;;;;;;;;11.60;99.90;;;;;;4974550;28;20342;-64
2022/04/16 05:24:27;;;;;;;;;;;11.60;99.90;;;;;;4974329;28;19961;-62
2022/04/16 05:26:53;;;;;;;;;;;11.50;99.90;;;;;;4973864;28;19946;-64
2022/04/16 05:29:18;;;;;;;;;;;11.50;99.90;;;;;;4974201;28;19953;-60
2022/04/16 05:31:44;;;;;;;;;;;11.50;99.90;;;;;;4989568;28;19922;-63
2022/04/16 05:34:18;;;;;;;;;;;11.50;99.90;;;;;;4974381;28;19914;-61
2022/04/16 05:36:45;;;;;;;;;;;11.50;99.90;;;;;;4974435;28;19965;-64
2022/04/16 05:39:11;;;;;;;;;;;11.50;99.90;;;;;;4974653;28;19922;-62
2022/04/16 05:41:37;;;;;;;;;;;11.50;99.90;;;;;;4974301;28;19981;-62
2022/04/16 05:44:04;;;;;;;;;;;11.50;99.90;;;;;;4973199;28;19989;-63
2022/04/16 05:46:29;;;;;;;;;;;11.50;99.90;;;;;;4973918;28;19918;-64
2022/04/16 05:48:55;;;;;;;;;;;11.50;99.90;;;;;;4974022;28;20010;-62
2022/04/16 05:51:21;;;;;;;;;;;11.50;99.90;;;;;;4974296;28;19997;-63
2022/04/16 05:53:46;;;;;;;;;;;11.60;99.90;;;;;;4970777;28;20322;-64
2022/04/16 05:56:12;;;;;;;;;;;11.50;99.90;;;;;;4973843;28;19914;-62
2022/04/16 05:58:38;;;;;;;;;;;11.60;99.90;;;;;;4973739;28;19914;-62
2022/04/16 06:01:03;;;;;;;;;;;11.60;99.90;;;;;;4973950;28;19977;-64
2022/04/16 06:03:29;;;;;;;;;;;11.60;99.90;;;;;;4974275;28;19962;-64
2022/04/16 06:05:56;;;;;;;;;;;11.60;99.90;;;;;;4974418;28;20387;-65
2022/04/16 06:08:21;;;;;;;;;;;11.70;99.90;;;;;;4973761;28;19917;-61
2022/04/16 06:10:47;;;;;;;;;;;11.70;99.90;;;;;;4973186;28;19918;-64
2022/04/16 06:13:12;;;;;;;;;;;11.70;99.90;;;;;;4973703;28;19918;-62
2022/04/16 06:15:39;;;;;;;;;;;11.60;99.90;;;;;;4973744;28;19914;-64
2022/04/16 06:18:04;;;;;;;;;;;11.70;99.90;;;;;;4973706;28;19917;-63
2022/04/16 06:20:30;;;;;;;;;;;11.70;99.90;;;;;;4973846;28;19918;-64
2022/04/16 06:22:55;;;;;;;;;;;11.70;99.90;;;;;;4973276;28;19973;-61
2022/04/16 06:25:21;;;;;;;;;;;11.70;99.90;;;;;;4973488;28;19914;-63
2022/04/16 06:27:46;;;;;;;;;;;11.70;99.90;;;;;;4973591;28;20369;-62
2022/04/16 06:30:11;;;;;;;;;;;11.80;99.90;;;;;;4973214;28;19969;-64
2022/04/16 06:32:38;;;;;;;;;;;11.90;99.90;;;;;;4974302;28;19924;-61
2022/04/16 06:35:05;;;;;;;;;;;11.90;99.90;;;;;;4973357;28;19973;-62
2022/04/16 06:37:31;;;;;;;;;;;11.90;99.90;;;;;;4973158;28;19956;-62
2022/04/16 06:39:57;;;;;;;;;;;11.90;99.90;;;;;;4973021;28;19914;-63
2022/04/16 06:42:22;;;;;;;;;;;11.90;99.90;;;;;;4972995;28;19918;-60
2022/04/16 06:44:48;;;;;;;;;;;11.90;99.90;;;;;;4973688;28;19928;-63
2022/04/16 06:47:13;;;;;;;;;;;11.90;99.90;;;;;;4973002;28;19985;-61
2022/04/16 06:49:39;;;;;;;;;;;12.00;99.90;;;;;;4972539;28;20705;-61
2022/04/16 06:52:04;;;;;;;;;;;12.00;99.90;;;;;;4979296;28;19922;-61
2022/04/16 06:54:30;;;;;;;;;;;12.10;99.90;;;;;;4969793;28;19922;-59
2022/04/16 06:56:55;;;;;;;;;;;12.10;99.90;;;;;;4972676;28;20366;-60
2022/04/16 06:59:21;;;;;;;;;;;12.10;99.90;;;;;;4972033;28;19914;-61
2022/04/16 07:01:46;;;;;;;;;;;12.10;99.90;;;;;;4972737;28;20347;-61
2022/04/16 07:04:12;;;;;;;;;;;12.20;99.90;;;;;;4972199;28;19969;-61
2022/04/16 07:06:39;;;;;;;;;;;12.20;99.90;;;;;;4972084;28;19914;-61
2022/04/16 07:09:05;;;;;;;;;;;12.30;99.90;;;;;;4972248;28;19910;-62
2022/04/16 07:11:30;;;;;;;;;;;12.30;99.90;;;;;;4968978;28;19929;-61
2022/04/16 07:13:55;;;;;;;;;;;12.30;99.90;;;;;;4981130;28;19922;-61
2022/04/16 07:16:21;;;;;;;;;;;12.30;99.90;;;;;;4963800;28;19925;-61
2022/04/16 07:18:46;;;;;;;;;;;12.30;99.90;;;;;;4971653;28;19914;-58
2022/04/16 07:21:12;;;;;;;;;;;12.40;99.90;;;;;;4972172;28;19941;-61
2022/04/16 07:23:38;;;;;;;;;;;12.40;99.90;;;;;;4972206;28;20004;-61
2022/04/16 07:26:03;;;;;;;;;;;12.50;99.90;;;;;;4968218;28;19961;-61
2022/04/16 07:28:28;;;;;;;;;;;12.40;99.90;;;;;;4970279;28;20298;-63
2022/04/16 07:30:54;;;;;;;;;;;12.50;99.90;;;;;;4964205;28;19978;-61
2022/04/16 07:33:19;;;;;;;;;;;12.60;99.90;;;;;;4961473;28;19937;-60
2022/04/16 07:35:45;;;;;;;;;;;12.60;99.90;;;;;;4972503;28;19917;-62
2022/04/16 07:38:11;;;;;;;;;;;12.60;99.90;;;;;;4971628;28;19914;-61
2022/04/16 07:40:36;;;;;;;;;;;12.60;99.90;;;;;;4966099;28;20331;-64
2022/04/16 07:43:02;;;;;;;;;;;12.70;99.90;;;;;;4966196;28;21329;-61
2022/04/16 07:45:28;;;;;;;;;;;12.60;99.90;;;;;;4969317;28;20406;-61
2022/04/16 07:47:53;;;;;;;;;;;12.60;99.90;;;;;;4970240;28;20013;-63
2022/04/16 07:50:19;;;;;;;;;;;12.60;99.90;;;;;;4969778;28;19925;-62
2022/04/16 07:52:45;;;;;;;;;;;12.60;99.80;;;;;;4969468;28;20291;-62
2022/04/16 07:55:10;;;;;;;;;;;12.70;99.90;;;;;;4969899;28;19966;-63
2022/04/16 07:57:36;;;;;;;;;;;12.70;99.80;;;;;;4970137;28;19918;-61
2022/04/16 08:00:02;;;;;;;;;;;12.70;99.70;;;;;;4970626;28;20013;-63
2022/04/16 08:02:28;;;;;;;;;;;12.70;99.80;;;;;;4970167;28;19918;-63
2022/04/16 08:04:54;;;;;;;;;;;12.80;99.90;;;;;;4968609;28;20454;-62
2022/04/16 08:07:19;;;;;;;;;;;12.80;99.80;;;;;;4970005;28;20011;-62
2022/04/16 08:09:45;;;;;;;;;;;12.80;99.50;;;;;;4969529;28;20386;-61
2022/04/16 08:12:11;;;;;;;;;;;12.90;99.50;;;;;;4967926;28;20005;-62
2022/04/16 08:14:36;;;;;;;;;;;12.90;99.30;;;;;;4970675;28;20052;-61
2022/04/16 08:17:02;;;;;;;;;;;12.90;99.40;;;;;;4969420;28;19937;-63
2022/04/16 08:19:28;;;;;;;;;;;12.90;99.40;;;;;;4968990;28;19914;-60
2022/04/16 08:21:53;;;;;;;;;;;13.00;99.40;;;;;;4969245;28;19918;-63
2022/04/16 08:24:38;;;;;;;;;;;13.00;99.30;;;;;;4969607;28;19918;-62
2022/04/16 08:27:04;;;;;;;;;;;13.10;99.10;;;;;;4969764;28;19922;-62
2022/04/16 08:29:29;;;;;;;;;;;13.10;98.90;;;;;;4969456;28;19972;-62
2022/04/16 08:31:55;;;;;;;;;;;13.20;99.10;;;;;;4969226;28;19962;-61
2022/04/16 08:34:20;;;;;;;;;;;13.20;98.60;;;;;;4969109;28;19915;-61
2022/04/16 08:36:46;;;;;;;;;;;13.20;99.20;;;;;;4971616;28;19977;-60
2022/04/16 08:39:11;;;;;;;;;;;13.20;99.20;;;;;;4969181;28;19937;-62
2022/04/16 08:41:38;;;;;;;;;;;13.30;98.90;;;;;;4970367;28;19918;-61
2022/04/16 08:44:04;;;;;;;;;;;13.30;98.90;;;;;;4968850;28;19926;-62
2022/04/16 08:46:32;;;;;;;;;;;13.30;98.70;;;;;;4968866;28;19945;-60
2022/04/16 08:48:58;;;;;;;;;;;13.30;98.90;;;;;;4969212;28;19914;-59
2022/04/16 08:51:25;;;;;;;;;;;13.30;98.80;;;;;;4966645;28;20453;-61
2022/04/16 08:53:51;;;;;;;;;;;13.30;99.10;;;;;;4970224;28;19949;-59
2022/04/16 08:56:16;;;;;;;;;;;13.30;98.90;;;;;;4969386;28;19945;-61
2022/04/16 08:58:42;;;;;;;;;;;13.40;99.00;;;;;;4969522;28;19918;-60
2022/04/16 09:01:08;;;;;;;;;;;13.40;98.90;;;;;;4969686;28;20375;-61
2022/04/16 09:03:35;;;;;;;;;;;13.50;99.10;;;;;;4969367;28;19925;-61
2022/04/16 09:06:01;;;;;;;;;;;13.50;98.90;;;;;;4969002;28;20285;-62
2022/04/16 09:08:28;;;;;;;;;;;13.70;98.50;;;;;;4970206;28;20414;-61
2022/04/16 09:11:03;;;;;;;;;;;13.80;98.60;;;;;;4978594;28;19938;-62
2022/04/16 09:13:28;;;;;;;;;;;13.80;98.10;;;;;;4967381;28;20397;-63
2022/04/16 09:16:02;;;;;;;;;;;13.70;98.40;;;;;;4968356;28;19922;-62
2022/04/16 09:18:27;;;;;;;;;;;13.80;98.30;;;;;;4971618;28;19918;-59
2022/04/16 09:20:53;;;;;;;;;;;13.80;98.20;;;;;;4974904;28;20290;-62
2022/04/16 09:23:19;;;;;;;;;;;13.90;97.80;;;;;;4973075;28;19918;-62
2022/04/16 09:25:45;;;;;;;;;;;13.90;98.00;;;;;;4972278;28;19914;-62
2022/04/16 09:28:13;;;;;;;;;;;13.90;98.00;;;;;;4971946;28;19914;-61
2022/04/16 09:30:47;;;;;;;;;;;13.90;97.90;;;;;;4986946;28;19925;-64
2022/04/16 09:33:12;;;;;;;;;;;13.90;98.20;;;;;;4971710;28;19926;-62
2022/04/16 09:35:38;;;;;;;;;;;14.00;97.80;;;;;;4974937;28;19921;-62
2022/04/16 09:38:06;;;;;;;;;;;14.10;97.80;;;;;;4973083;28;19922;-63
2022/04/16 09:40:33;;;;;;;;;;;14.10;98.10;;;;;;4975970;28;20306;-61
2022/04/16 09:43:01;;;;;;;;;;;14.20;97.50;;;;;;4977710;28;19914;-61
2022/04/16 09:45:27;;;;;;;;;;;14.20;97.60;;;;;;4970112;28;20395;-63
2022/04/16 09:47:52;;;;;;;;;;;14.30;97.50;;;;;;4972485;28;20364;-59
2022/04/16 09:50:19;;;;;;;;;;;14.30;97.60;;;;;;4971910;28;20005;-58
2022/04/16 09:52:47;;;;;;;;;;;14.40;97.10;;;;;;4971648;28;19933;-60
2022/04/16 09:55:12;;;;;;;;;;;14.40;97.20;;;;;;4972283;28;19921;-62
2022/04/16 09:57:39;;;;;;;;;;;14.50;97.10;;;;;;4971854;28;19914;-61
2022/04/16 10:00:05;;;;;;;;;;;14.50;97.40;;;;;;4971538;28;19922;-60
2022/04/16 10:02:31;;;;;;;;;;;14.50;96.90;;;;;;4972768;28;19925;-58
2022/04/16 10:04:59;;;;;;;;;;;14.60;96.80;;;;;;4971427;28;20336;-60
2022/04/16 10:07:26;;;;;;;;;;;14.60;97.00;;;;;;4969615;28;19991;-59
2022/04/16 10:09:53;;;;;;;;;;;14.60;97.00;;;;;;4971212;28;19918;-58
2022/04/16 10:14:57;;;;;;;;;;;14.70;96.30;;;;;;4970066;28;19922;-62
2022/04/16 10:17:25;;;;;;;;;;;14.90;95.20;;;;;;4971968;28;20375;-62
2022/04/16 10:19:53;;;;;;;;;;;14.90;95.70;;;;;;4971693;28;19961;-59
2022/04/16 10:22:25;;;;;;;;;;;15.00;95.60;;;;;;4971258;28;19914;-61
2022/04/16 10:24:57;;;;;;;;;;;15.10;94.70;;;;;;4971590;28;19918;-61
2022/04/16 10:27:26;;;;;;;;;;;15.20;94.90;;;;;;4971646;28;19921;-62
2022/04/16 10:29:52;;;;;;;;;;;15.30;94.90;;;;;;4968754;28;19914;-63
2022/04/16 10:32:18;;;;;;;;;;;15.30;95.50;;;;;;4970915;28;19922;-61
2022/04/16 10:34:44;;;;;;;;;;;15.30;95.20;;;;;;4971874;28;20307;-62
2022/04/16 10:37:19;;;;;;;;;;;15.30;95.40;;;;;;4971370;28;19918;-61
2022/04/16 10:39:45;;;;;;;;;;;15.30;95.10;;;;;;4967636;28;19919;-63
2022/04/16 10:42:11;;;;;;;;;;;15.40;94.60;;;;;;4971089;28;19914;-61
2022/04/16 10:44:44;;;;;;;;;;;15.40;94.00;;;;;;4971838;28;19926;-62
2022/04/16 10:47:14;;;;;;;;;;;15.40;92.30;;;;;;4970555;28;19921;-60
2022/04/16 10:49:41;;;;;;;;;;;15.40;93.30;;;;;;4970839;28;19914;-60
2022/04/16 10:52:22;;;;;;;;;;;15.40;93.30;;;;;;4970665;28;19933;-61
2022/04/16 10:54:48;;;;;;;;;;;15.50;92.10;;;;;;4967909;28;19914;-61
2022/04/16 10:57:21;;;;;;;;;;;15.50;92.30;;;;;;4970455;28;19955;-62
2022/04/16 10:59:46;;;;;;;;;;;15.40;92.80;;;;;;4971632;28;19941;-61
2022/04/16 11:02:21;;;;;;;;;;;15.40;91.40;;;;;;4968734;28;20009;-60
2022/04/16 11:05:00;;;;;;;;;;;15.40;92.10;;;;;;4967435;28;19920;-60
2022/04/16 11:07:27;;;;;;;;;;;15.40;92.10;;;;;;4968524;28;19921;-61
2022/04/16 11:09:52;;;;;;;;;;;15.40;91.90;;;;;;4970156;28;20396;-63
2022/04/16 11:12:19;;;;;;;;;;;15.30;91.30;;;;;;4970256;28;20010;-62
2022/04/16 11:14:48;;;;;;;;;;;15.40;90.80;;;;;;4971142;28;19925;-59
2022/04/16 11:17:13;;;;;;;;;;;15.50;90.10;;;;;;4970145;28;19914;-60
2022/04/16 11:19:39;;;;;;;;;;;15.50;91.40;;;;;;4969297;28;19972;-62
2022/04/16 11:22:05;;;;;;;;;;;15.50;91.40;;;;;;4969524;28;19922;-60
2022/04/16 11:24:30;;;;;;;;;;;15.70;90.60;;;;;;4969958;28;19929;-60
2022/04/16 11:35:24;;;;;;;;;;;15.90;90.70;;;;;;4970172;28;19921;-62
2022/04/16 11:37:53;;;;;;;;;;;15.90;90.00;;;;;;4970081;28;19953;-60
2022/04/16 11:40:18;;;;;;;;;;;16.00;90.40;;;;;;4968394;28;19921;-62
2022/04/16 11:42:44;;;;;;;;;;;16.00;90.30;;;;;;4969832;28;19918;-61
2022/04/16 11:45:10;;;;;;;;;;;16.10;88.40;;;;;;4984329;28;19951;-62
2022/04/16 11:47:36;;;;;;;;;;;16.10;89.30;;;;;;4970889;28;19918;-62
2022/04/16 11:50:05;;;;;;;;;;;16.10;90.20;;;;;;4969419;28;20360;-60
2022/04/16 11:52:32;;;;;;;;;;;16.20;89.20;;;;;;4969632;28;19926;-61
2022/04/16 11:55:06;;;;;;;;;;;16.20;89.90;;;;;;4969438;28;20366;-60
2022/04/16 11:57:32;;;;;;;;;;;16.10;89.30;;;;;;4969120;28;19918;-63
2022/04/16 12:00:00;;;;;;;;;;;16.10;86.30;;;;;;4969551;28;19921;-59
2022/04/16 12:02:29;;;;;;;;;;;16.10;88.40;;;;;;4970398;28;20195;-61
2022/04/16 12:04:54;;;;;;;;;;;16.20;89.00;;;;;;4969383;28;20389;-61
2022/04/16 12:07:24;;;;;;;;;;;16.20;87.20;;;;;;4970058;28;19924;-61
2022/04/16 12:09:50;;;;;;;;;;;16.30;88.10;;;;;;4969036;28;19925;-61
2022/04/16 12:12:24;;;;;;;;;;;16.30;88.70;;;;;;4969714;28;19930;-62
2022/04/16 12:14:51;;;;;;;;;;;16.50;87.30;;;;;;4967611;28;20294;-63
2022/04/16 12:17:26;;;;;;;;;;;16.50;87.60;;;;;;4967505;28;19921;-59
2022/04/16 12:20:10;;;;;;;;;;;16.40;89.00;;;;;;4968347;28;19914;-60
2022/04/16 12:23:12;;;;;;;;;;;16.40;87.00;;;;;;4968306;28;19965;-62
2022/04/16 12:25:38;;;;;;;;;;;16.40;86.10;;;;;;4923224;29;20007;-63
2022/04/16 12:28:08;;;;;;;;;;;16.60;85.10;;;;;;4920631;29;20426;-61
2022/04/16 12:30:37;;;;;;;;;;;16.50;85.10;;;;;;4918816;29;19915;-63
2022/04/16 12:33:06;;;;;;;;;;;16.60;85.40;;;;;;4917951;29;19966;-59
2022/04/16 12:35:36;;;;;;;;;;;16.70;84.90;;;;;;4919961;29;20011;-60
2022/04/16 12:38:02;;;;;;;;;;;16.80;85.50;;;;;;4918696;29;20007;-61
2022/04/16 12:40:28;;;;;;;;;;;16.80;84.80;;;;;;4922549;29;19914;-61
2022/04/16 12:42:54;;;;;;;;;;;16.80;85.50;;;;;;4925293;29;20029;-61
2022/04/16 12:45:20;;;;;;;;;;;16.80;83.90;;;;;;4918465;29;20107;-61
2022/04/16 12:47:46;;;;;;;;;;;16.80;84.90;;;;;;4919725;29;19922;-59
2022/04/16 12:50:13;;;;;;;;;;;16.80;83.10;;;;;;4919759;29;20391;-61
2022/04/16 12:52:39;;;;;;;;;;;16.80;85.00;;;;;;4922871;29;19923;-62
2022/04/16 12:55:05;;;;;;;;;;;16.70;83.20;;;;;;4923256;29;20456;-61
2022/04/16 12:57:30;;;;;;;;;;;16.70;83.30;;;;;;4929943;29;19918;-63
2022/04/16 12:59:56;;;;;;;;;;;16.80;83.00;;;;;;4922079;29;19916;-62
2022/04/16 13:02:21;;;;;;;;;;;16.90;84.50;;;;;;4972938;28;19925;-62
2022/04/16 13:04:47;;;;;;;;;;;16.90;82.50;;;;;;4976616;28;19918;-61
2022/04/16 13:07:12;;;;;;;;;;;17.00;81.50;;;;;;4976635;28;19922;-61
2022/04/16 13:09:38;;;;;;;;;;;17.00;81.30;;;;;;4972360;28;19922;-62
2022/04/16 13:12:03;;;;;;;;;;;16.90;82.00;;;;;;4972519;28;19922;-61
2022/04/16 13:14:29;;;;;;;;;;;17.00;81.20;;;;;;4973137;28;19921;-62
2022/04/16 13:16:55;;;;;;;;;;;17.00;82.20;;;;;;4971784;28;20751;-62
2022/04/16 13:19:21;;;;;;;;;;;17.00;83.20;;;;;;4972002;28;19914;-61
2022/04/16 13:21:47;;;;;;;;;;;17.10;82.70;;;;;;4971563;28;20363;-64
2022/04/16 13:24:15;;;;;;;;;;;17.00;82.50;;;;;;4971428;28;19928;-62
2022/04/16 13:26:44;;;;;;;;;;;17.00;82.30;;;;;;4971603;28;19915;-63
2022/04/16 13:29:10;;;;;;;;;;;17.00;81.80;;;;;;4971525;28;19918;-62
2022/04/16 13:31:36;;;;;;;;;;;17.10;80.90;;;;;;4972050;28;19926;-63
2022/04/16 13:34:02;;;;;;;;;;;17.10;81.40;;;;;;4971948;28;19914;-63
2022/04/16 13:36:28;;;;;;;;;;;17.10;80.90;;;;;;4972234;28;19919;-58
2022/04/16 13:38:54;;;;;;;;;;;17.10;81.30;;;;;;4971673;28;20311;-61
2022/04/16 13:44:04;;;;;;;;;;;17.20;80.50;;;;;;4971909;28;19965;-62
2022/04/16 13:46:29;;;;;;;;;;;17.10;80.10;;;;;;4971889;28;19924;-59
2022/04/16 13:48:56;;;;;;;;;;;17.10;80.20;;;;;;4971878;28;19918;-61
2022/04/16 13:51:22;;;;;;;;;;;17.10;79.60;;;;;;4970561;28;19928;-61
2022/04/16 13:53:47;;;;;;;;;;;17.20;80.40;;;;;;4972829;28;20199;-62
2022/04/16 13:56:13;;;;;;;;;;;17.40;79.40;;;;;;4986561;28;20350;-62
2022/04/16 13:58:38;;;;;;;;;;;17.30;79.40;;;;;;4971607;28;20357;-61
2022/04/16 14:01:04;;;;;;;;;;;17.30;78.40;;;;;;4971765;28;20491;-59
2022/04/16 14:03:29;;;;;;;;;;;17.20;78.50;;;;;;4971364;28;19914;-60
2022/04/16 14:05:55;;;;;;;;;;;17.30;77.70;;;;;;4971575;28;20306;-59
2022/04/16 14:08:21;;;;;;;;;;;17.20;77.40;;;;;;4988850;28;19925;-60
2022/04/16 14:10:47;;;;;;;;;;;17.20;77.40;;;;;;4980973;28;20393;-60
2022/04/16 14:13:12;;;;;;;;;;;17.40;75.60;;;;;;4979253;28;19914;-58
2022/04/16 14:15:38;;;;;;;;;;;17.50;74.80;;;;;;4980814;28;19918;-59
2022/04/16 14:18:03;;;;;;;;;;;17.50;74.90;;;;;;4980414;28;19918;-59
2022/04/16 14:20:29;;;;;;;;;;;17.50;75.40;;;;;;4978807;28;20390;-59
2022/04/16 14:22:56;;;;;;;;;;;17.40;75.80;;;;;;4991856;28;19928;-59
2022/04/16 14:25:22;;;;;;;;;;;17.50;75.90;;;;;;4975957;28;19919;-58
2022/04/16 14:27:47;;;;;;;;;;;17.50;75.30;;;;;;4973155;28;20041;-60
2022/04/16 14:30:13;;;;;;;;;;;17.50;74.90;;;;;;4970849;28;19925;-59
2022/04/16 14:32:38;;;;;;;;;;;17.50;75.30;;;;;;4972276;28;19929;-59
2022/04/16 14:35:04;;;;;;;;;;;17.50;76.00;;;;;;4970917;28;19921;-60
2022/04/16 14:37:29;;;;;;;;;;;17.60;75.60;;;;;;4970845;28;19918;-59
2022/04/16 14:39:55;;;;;;;;;;;17.60;75.80;;;;;;4970567;28;19918;-59